Aviation Digital Data Service (ADDS)

Output produced by METARs form (1637 UTC 23 September 2020)
found at http://aviationweather.gov/metar/data/
 
KLFT 231437Z 2315/2412 13010KT P6SM VCSH SCT007 SCT015 
     FM231700 17012G18KT P6SM VCTS OVC015CB 
     FM240000 21010KT P6SM VCSH OVC015 
     FM240300 VRB06KT P6SM OVC007 
     FM240600 31010KT P6SM BKN007 OVC015